Time;durP1;ratioP1;P1;durP2;ratioP2;P2;SDS_P1;SDS_P2;PMS_P1;PMS_P2;Temp;Humidity;BMP_temperature;BMP_pressure;BME280_temperature;BME280_humidity;BME280_pressure;Samples;Min_cycle;Max_cycle;Signal;HPM_P1;HPM_P2
2021/01/16 02:32:59;;;;;;;22.60;11.97;;;;;;;;;;6222052;23;20204;-78
2021/01/16 02:35:54;;;;;;;21.33;11.30;;;;;;;;;;6203441;23;20179;-79
2021/01/16 02:39:07;;;;;;;19.30;11.20;;;;;;;;;;6214644;23;20662;-78
2021/01/16 02:42:11;;;;;;;20.60;11.07;;;;;;;;;;6225657;23;20161;-78
2021/01/16 02:45:01;;;;;;;19.37;10.80;;;;;;;;;;6190758;23;20173;-78
2021/01/16 02:48:02;;;;;;;18.67;9.87;;;;;;;;;;6207706;23;20181;-80
2021/01/16 02:51:12;;;;;;;18.63;10.60;;;;;;;;;;6191398;23;20182;-78
2021/01/16 02:57:46;;;;;;;16.57;10.37;;;;;;;;;;6180518;23;20160;-80
2021/01/16 03:00:42;;;;;;;21.50;11.07;;;;;;;;;;6226496;23;20181;-78
2021/01/16 03:03:45;;;;;;;18.40;10.37;;;;;;;;;;6221390;23;20197;-80
2021/01/16 03:06:37;;;;;;;18.07;10.20;;;;;;;;;;6166915;23;20177;-79
2021/01/16 03:09:54;;;;;;;19.03;11.13;;;;;;;;;;6190938;23;20174;-78
2021/01/16 03:14:19;;;;;;;19.03;10.50;;;;;;;;;;6238521;23;20200;-80
2021/01/16 03:22:32;;;;;;;22.07;12.20;;;;;;;;;;6207931;23;20186;-79
2021/01/16 03:25:24;;;;;;;23.47;11.97;;;;;;;;;;6192645;23;20176;-78
2021/01/16 03:28:07;;;;;;;25.17;11.40;;;;;;;;;;6206611;23;20184;-78
2021/01/16 03:30:48;;;;;;;21.57;11.47;;;;;;;;;;6165049;23;20176;-80
2021/01/16 03:33:35;;;;;;;21.97;10.77;;;;;;;;;;6193722;23;20204;-80
2021/01/16 03:36:30;;;;;;;21.23;11.23;;;;;;;;;;6221034;23;20154;-78
2021/01/16 03:39:27;;;;;;;18.73;10.57;;;;;;;;;;6191208;23;20177;-80
2021/01/16 03:42:28;;;;;;;21.03;11.70;;;;;;;;;;6213253;23;20172;-80
2021/01/16 03:45:23;;;;;;;21.17;11.70;;;;;;;;;;6215748;23;20592;-80
2021/01/16 03:48:17;;;;;;;20.07;11.10;;;;;;;;;;6206037;23;20174;-80
2021/01/16 03:54:45;;;;;;;21.23;11.20;;;;;;;;;;6196117;23;20193;-80
2021/01/16 03:57:45;;;;;;;19.97;10.97;;;;;;;;;;6219281;23;20187;-78
2021/01/16 04:04:51;;;;;;;18.70;11.23;;;;;;;;;;6189056;23;20230;-79
2021/01/16 04:11:56;;;;;;;23.07;13.00;;;;;;;;;;6221435;23;20207;-80
2021/01/16 04:15:18;;;;;;;21.10;11.97;;;;;;;;;;6217643;23;20204;-78
2021/01/16 04:18:16;;;;;;;22.33;12.77;;;;;;;;;;6190481;23;20165;-79
2021/01/16 04:21:00;;;;;;;27.13;13.50;;;;;;;;;;6216394;23;20151;-80
2021/01/16 04:23:52;;;;;;;26.27;13.30;;;;;;;;;;6216932;23;20194;-80
2021/01/16 04:26:50;;;;;;;24.83;13.27;;;;;;;;;;6166989;23;20501;-80
2021/01/16 04:29:42;;;;;;;25.50;14.20;;;;;;;;;;6187974;23;20507;-78
2021/01/16 04:32:28;;;;;;;25.03;12.63;;;;;;;;;;6214651;23;20179;-80
2021/01/16 04:35:21;;;;;;;24.23;12.93;;;;;;;;;;6188712;23;20174;-80
2021/01/16 04:38:10;;;;;;;26.07;12.37;;;;;;;;;;6212097;23;20186;-79
2021/01/16 04:41:12;;;;;;;23.17;12.87;;;;;;;;;;6190185;23;20175;-79
2021/01/16 04:43:57;;;;;;;28.23;13.23;;;;;;;;;;6228221;23;20195;-78
2021/01/16 04:46:45;;;;;;;26.37;13.63;;;;;;;;;;6190243;23;20167;-77
2021/01/16 04:49:28;;;;;;;28.13;13.47;;;;;;;;;;6227742;23;20134;-79
2021/01/16 04:52:11;;;;;;;29.47;13.93;;;;;;;;;;6215030;23;20201;-80
2021/01/16 04:55:09;;;;;;;25.23;13.47;;;;;;;;;;6196115;23;20181;-79
2021/01/16 04:58:01;;;;;;;26.47;14.00;;;;;;;;;;6191276;23;20171;-80
2021/01/16 05:21:15;;;;;;;24.17;12.87;;;;;;;;;;6219114;23;20497;-80
2021/01/16 05:24:27;;;;;;;26.40;13.63;;;;;;;;;;6211705;23;20192;-78
2021/01/16 05:27:24;;;;;;;27.17;13.40;;;;;;;;;;6195977;23;20471;-78
2021/01/16 05:30:21;;;;;;;25.30;13.00;;;;;;;;;;6198209;23;20173;-79
2021/01/16 05:33:36;;;;;;;24.87;12.90;;;;;;;;;;6206538;23;20202;-79
2021/01/16 05:49:49;;;;;;;28.17;14.20;;;;;;;;;;6153208;23;20489;-78
2021/01/16 05:52:53;;;;;;;24.27;13.87;;;;;;;;;;6193602;23;20171;-78
2021/01/16 06:11:18;;;;;;;27.30;13.30;;;;;;;;;;6211543;23;20548;-78
2021/01/16 06:14:29;;;;;;;25.47;13.13;;;;;;;;;;6194016;23;20213;-80
2021/01/16 06:21:07;;;;;;;26.67;13.07;;;;;;;;;;6217551;23;20350;-80
2021/01/16 06:24:27;;;;;;;31.67;14.47;;;;;;;;;;6191039;23;20195;-79
2021/01/16 06:27:53;;;;;;;32.20;15.63;;;;;;;;;;6168741;23;20174;-78
2021/01/16 07:17:46;;;;;;;31.37;14.77;;;;;;;;;;6080951;23;20185;-78
2021/01/16 07:20:51;;;;;;;31.70;14.83;;;;;;;;;;6193368;23;20177;-79
2021/01/16 07:24:00;;;;;;;27.97;14.07;;;;;;;;;;6220572;23;20193;-80
2021/01/16 08:17:21;;;;;;;31.63;15.30;;;;;;;;;;5900714;24;20167;-78
2021/01/16 08:20:50;;;;;;;30.80;15.30;;;;;;;;;;5863526;24;20160;-80
2021/01/16 09:19:10;;;;;;;33.33;15.50;;;;;;;;;;5816690;24;20169;-81
2021/01/16 09:21:43;;;;;;;35.93;14.97;;;;;;;;;;5948411;23;20195;-81
2021/01/16 09:24:22;;;;;;;32.67;15.10;;;;;;;;;;5987000;23;20192;-81
2021/01/16 09:26:55;;;;;;;35.40;16.83;;;;;;;;;;6002940;23;20522;-81
2021/01/16 09:29:28;;;;;;;34.53;16.73;;;;;;;;;;6119968;23;20172;-81
2021/01/16 09:32:01;;;;;;;33.23;15.33;;;;;;;;;;6211414;23;20191;-81
2021/01/16 09:34:37;;;;;;;31.17;15.60;;;;;;;;;;6211103;23;20206;-80
2021/01/16 09:37:23;;;;;;;27.13;14.63;;;;;;;;;;6209845;23;20158;-81
2021/01/16 09:40:05;;;;;;;28.67;15.07;;;;;;;;;;6183007;23;20170;-81
2021/01/16 09:42:48;;;;;;;28.20;14.50;;;;;;;;;;6161367;23;20615;-81
2021/01/16 09:45:19;;;;;;;31.83;14.90;;;;;;;;;;6211083;23;20172;-81
2021/01/16 09:47:53;;;;;;;30.10;14.97;;;;;;;;;;6185941;23;20183;-81
2021/01/16 09:50:29;;;;;;;27.27;14.70;;;;;;;;;;6212042;23;20177;-81
2021/01/16 09:53:04;;;;;;;36.10;14.70;;;;;;;;;;6161810;23;20329;-81
2021/01/16 09:55:40;;;;;;;27.10;12.80;;;;;;;;;;6186819;23;20167;-82
2021/01/16 09:58:29;;;;;;;25.20;11.90;;;;;;;;;;6186722;23;20156;-80
2021/01/16 10:01:19;;;;;;;22.57;12.10;;;;;;;;;;6212290;23;20171;-82
2021/01/16 10:03:52;;;;;;;24.97;12.73;;;;;;;;;;6186566;23;20203;-81
2021/01/16 10:06:34;;;;;;;22.87;11.87;;;;;;;;;;6186102;23;20168;-82
2021/01/16 10:09:19;;;;;;;18.73;11.07;;;;;;;;;;6210303;23;20170;-81
2021/01/16 10:11:50;;;;;;;22.90;11.47;;;;;;;;;;6211041;23;20197;-81
2021/01/16 10:14:22;;;;;;;24.47;12.40;;;;;;;;;;6203671;23;20199;-81
2021/01/16 10:17:11;;;;;;;23.00;12.23;;;;;;;;;;6185164;23;20175;-81
2021/01/16 10:19:42;;;;;;;24.13;12.63;;;;;;;;;;6210728;23;20162;-81
2021/01/16 10:22:15;;;;;;;22.57;11.60;;;;;;;;;;6199280;23;20182;-81
2021/01/16 10:24:45;;;;;;;24.83;13.23;;;;;;;;;;6211902;23;20175;-81
2021/01/16 10:27:54;;;;;;;24.53;11.27;;;;;;;;;;6212585;23;20647;-81
2021/01/16 10:30:25;;;;;;;21.20;10.70;;;;;;;;;;6185871;23;20178;-81
2021/01/16 10:32:56;;;;;;;22.50;12.10;;;;;;;;;;6209479;23;20693;-81
2021/01/16 10:35:29;;;;;;;23.23;12.13;;;;;;;;;;6209382;23;20172;-81
2021/01/16 10:38:02;;;;;;;21.20;11.97;;;;;;;;;;6180708;23;20175;-81
2021/01/16 10:40:32;;;;;;;22.20;11.47;;;;;;;;;;6206218;23;20168;-81
2021/01/16 10:43:04;;;;;;;25.60;12.90;;;;;;;;;;6207570;23;20712;-81
2021/01/16 10:46:05;;;;;;;21.73;11.23;;;;;;;;;;6205597;23;20177;-80
2021/01/16 10:48:39;;;;;;;20.00;10.43;;;;;;;;;;6207908;23;20160;-81
2021/01/16 10:51:11;;;;;;;20.93;11.37;;;;;;;;;;6204173;23;20181;-81
2021/01/16 10:53:43;;;;;;;21.43;11.50;;;;;;;;;;6178918;23;20198;-81
2021/01/16 10:56:16;;;;;;;18.70;10.50;;;;;;;;;;6202430;23;20171;-81
2021/01/16 10:58:47;;;;;;;18.73;10.53;;;;;;;;;;6180033;23;20178;-81
2021/01/16 11:01:44;;;;;;;21.90;11.87;;;;;;;;;;6207786;23;20175;-81
2021/01/16 11:04:20;;;;;;;19.63;11.00;;;;;;;;;;6204853;23;20215;-81
2021/01/16 11:06:52;;;;;;;19.70;11.67;;;;;;;;;;6205912;23;20177;-81
2021/01/16 11:09:48;;;;;;;19.90;10.63;;;;;;;;;;6205310;23;20171;-81
2021/01/16 11:12:26;;;;;;;20.27;11.50;;;;;;;;;;6138725;23;20193;-80
2021/01/16 11:14:55;;;;;;;22.43;11.43;;;;;;;;;;6206224;23;20154;-81
2021/01/16 11:17:57;;;;;;;19.37;10.90;;;;;;;;;;6183145;23;20168;-80
2021/01/16 11:20:29;;;;;;;21.07;10.83;;;;;;;;;;6185516;23;20180;-81
2021/01/16 11:23:35;;;;;;;17.90;9.97;;;;;;;;;;6202476;23;20199;-80
2021/01/16 11:26:11;;;;;;;23.40;12.50;;;;;;;;;;6204384;23;20178;-80
2021/01/16 11:28:50;;;;;;;17.47;9.87;;;;;;;;;;6215214;23;20210;-80
2021/01/16 11:31:29;;;;;;;20.10;10.70;;;;;;;;;;6212657;23;20713;-80
2021/01/16 11:34:25;;;;;;;19.03;10.33;;;;;;;;;;6210571;23;20209;-80
2021/01/16 11:37:00;;;;;;;24.30;12.10;;;;;;;;;;6211910;23;20630;-81
2021/01/16 11:39:50;;;;;;;18.10;11.20;;;;;;;;;;6209124;23;20527;-81
2021/01/16 11:42:21;;;;;;;23.27;11.77;;;;;;;;;;6186697;23;20606;-80
2021/01/16 11:44:54;;;;;;;22.03;10.93;;;;;;;;;;6210923;23;20171;-80
2021/01/16 11:47:25;;;;;;;18.33;9.97;;;;;;;;;;6185246;23;20178;-80
2021/01/16 11:49:57;;;;;;;18.07;10.47;;;;;;;;;;6234129;23;20174;-80
2021/01/16 11:52:26;;;;;;;19.20;10.70;;;;;;;;;;6210250;23;20194;-80
2021/01/16 11:55:20;;;;;;;21.27;11.37;;;;;;;;;;6211119;23;20182;-82
2021/01/16 11:57:55;;;;;;;20.43;11.83;;;;;;;;;;6204542;23;20178;-81
2021/01/16 12:00:25;;;;;;;22.10;11.57;;;;;;;;;;6187454;23;20654;-81
2021/01/16 12:02:56;;;;;;;21.40;10.87;;;;;;;;;;6186234;23;20192;-82
2021/01/16 12:05:28;;;;;;;19.27;10.17;;;;;;;;;;6183618;23;20168;-81
2021/01/16 12:08:00;;;;;;;22.33;12.17;;;;;;;;;;6210964;23;20171;-81
2021/01/16 12:10:32;;;;;;;21.43;11.60;;;;;;;;;;6210408;23;20623;-81
2021/01/16 12:13:10;;;;;;;20.93;12.10;;;;;;;;;;6185887;23;20202;-81
2021/01/16 12:15:42;;;;;;;20.67;12.03;;;;;;;;;;6210774;23;20175;-82
2021/01/16 12:18:13;;;;;;;24.03;13.77;;;;;;;;;;6211180;23;20172;-81
2021/01/16 12:20:44;;;;;;;20.67;12.83;;;;;;;;;;6184749;23;20175;-81
2021/01/16 12:23:19;;;;;;;24.80;12.97;;;;;;;;;;6209473;23;20247;-81
2021/01/16 12:25:52;;;;;;;24.67;13.20;;;;;;;;;;6206326;23;20190;-81
2021/01/16 12:28:29;;;;;;;23.23;13.30;;;;;;;;;;6181616;23;20176;-81
2021/01/16 12:31:02;;;;;;;23.07;13.00;;;;;;;;;;6213607;23;20178;-82
2021/01/16 12:33:34;;;;;;;25.10;14.43;;;;;;;;;;6203238;23;20215;-82
2021/01/16 12:36:09;;;;;;;26.57;13.80;;;;;;;;;;6234821;23;20163;-82
2021/01/16 12:38:41;;;;;;;28.20;14.97;;;;;;;;;;6212528;23;20159;-81
2021/01/16 12:41:21;;;;;;;28.87;14.87;;;;;;;;;;6212378;23;20203;-81
2021/01/16 12:43:54;;;;;;;28.60;14.60;;;;;;;;;;6214121;23;20233;-82
2021/01/16 12:46:24;;;;;;;24.33;13.87;;;;;;;;;;6214908;23;20227;-81
2021/01/16 12:48:55;;;;;;;29.47;14.37;;;;;;;;;;6236161;23;20200;-82
2021/01/16 12:51:26;;;;;;;27.47;14.93;;;;;;;;;;6187604;23;20174;-81
2021/01/16 12:53:57;;;;;;;32.03;15.53;;;;;;;;;;6184328;23;20222;-81
2021/01/16 12:56:29;;;;;;;28.97;15.47;;;;;;;;;;6185684;23;20168;-82
2021/01/16 12:59:01;;;;;;;30.33;15.87;;;;;;;;;;6212888;23;20616;-82
2021/01/16 13:01:34;;;;;;;27.40;15.97;;;;;;;;;;6184778;23;20156;-81
2021/01/16 13:04:06;;;;;;;31.60;16.47;;;;;;;;;;6211572;23;20312;-82
2021/01/16 13:06:38;;;;;;;26.50;14.87;;;;;;;;;;6187876;23;20174;-82
2021/01/16 13:09:09;;;;;;;28.80;14.33;;;;;;;;;;6187983;23;20171;-82
2021/01/16 13:11:42;;;;;;;27.57;16.10;;;;;;;;;;6185813;23;20166;-82
2021/01/16 13:14:14;;;;;;;26.27;14.43;;;;;;;;;;6211122;23;20478;-79
2021/01/16 13:16:46;;;;;;;25.50;14.50;;;;;;;;;;6186059;23;20521;-82
2021/01/16 13:19:18;;;;;;;27.73;15.27;;;;;;;;;;6211631;23;20160;-82
2021/01/16 13:21:51;;;;;;;24.40;14.03;;;;;;;;;;6211603;23;20175;-83
2021/01/16 13:24:23;;;;;;;24.70;14.50;;;;;;;;;;6208940;23;20646;-82
2021/01/16 13:26:56;;;;;;;26.57;14.23;;;;;;;;;;6186879;23;20174;-82
2021/01/16 13:29:34;;;;;;;29.53;15.30;;;;;;;;;;6177424;23;20190;-82
2021/01/16 13:32:07;;;;;;;27.43;14.77;;;;;;;;;;6184518;23;20181;-82
2021/01/16 13:34:38;;;;;;;28.10;15.13;;;;;;;;;;6210310;23;20697;-82
2021/01/16 13:37:16;;;;;;;27.40;14.80;;;;;;;;;;6207369;23;20198;-82
2021/01/16 13:39:46;;;;;;;28.17;14.73;;;;;;;;;;6219507;23;20527;-82
2021/01/16 13:42:20;;;;;;;29.63;16.10;;;;;;;;;;6188833;23;20168;-82
2021/01/16 13:44:57;;;;;;;29.70;14.93;;;;;;;;;;6204681;23;20167;-80
2021/01/16 13:47:30;;;;;;;30.20;16.20;;;;;;;;;;6216801;23;20501;-80
2021/01/16 13:54:50;;;;;;;25.90;13.77;;;;;;;;;;6212415;23;20205;-81
2021/01/16 13:57:23;;;;;;;25.83;14.23;;;;;;;;;;6189157;23;20175;-80
2021/01/16 13:59:57;;;;;;;25.53;13.30;;;;;;;;;;6191407;23;20179;-80
2021/01/16 14:02:31;;;;;;;26.90;14.07;;;;;;;;;;6166951;23;20170;-80
2021/01/16 14:05:04;;;;;;;28.50;14.53;;;;;;;;;;6169065;23;20176;-80
2021/01/16 14:07:36;;;;;;;27.80;14.40;;;;;;;;;;6192872;23;20167;-80
2021/01/16 14:10:10;;;;;;;27.17;14.73;;;;;;;;;;6218390;23;20162;-82
2021/01/16 14:12:44;;;;;;;28.57;15.27;;;;;;;;;;6218501;23;20205;-81
2021/01/16 14:15:19;;;;;;;27.43;13.90;;;;;;;;;;6217592;23;20172;-82
2021/01/16 14:17:51;;;;;;;29.07;14.47;;;;;;;;;;6191110;23;20208;-80
2021/01/16 14:20:31;;;;;;;25.37;13.23;;;;;;;;;;6229978;23;20166;-81
2021/01/16 14:23:02;;;;;;;28.50;14.20;;;;;;;;;;6215872;23;20251;-81
2021/01/16 14:25:36;;;;;;;25.87;13.73;;;;;;;;;;6200541;23;20162;-80
2021/01/16 14:28:07;;;;;;;25.70;13.43;;;;;;;;;;6190529;23;20181;-81
2021/01/16 14:30:40;;;;;;;27.43;13.23;;;;;;;;;;6186763;23;20177;-80
2021/01/16 14:33:13;;;;;;;27.07;14.43;;;;;;;;;;6216701;23;20202;-81
2021/01/16 14:35:44;;;;;;;25.37;13.80;;;;;;;;;;6190105;23;20178;-81
2021/01/16 14:38:16;;;;;;;26.70;13.87;;;;;;;;;;6218161;23;20166;-81
2021/01/16 14:40:51;;;;;;;29.17;14.70;;;;;;;;;;6219157;23;20170;-81
2021/01/16 14:43:26;;;;;;;32.63;14.10;;;;;;;;;;6222123;23;20193;-81
2021/01/16 14:50:29;;;;;;;29.43;15.83;;;;;;;;;;6184508;23;20179;-82
2021/01/16 14:52:59;;;;;;;27.17;14.23;;;;;;;;;;6187464;23;20194;-81
2021/01/16 14:55:32;;;;;;;27.43;14.17;;;;;;;;;;6186791;23;20386;-81
2021/01/16 14:58:13;;;;;;;26.40;13.70;;;;;;;;;;6187283;23;20510;-81
2021/01/16 15:00:48;;;;;;;32.30;15.83;;;;;;;;;;6187462;23;20182;-81
2021/01/16 15:03:30;;;;;;;24.13;13.83;;;;;;;;;;6211765;23;20193;-81
2021/01/16 15:06:01;;;;;;;26.83;13.53;;;;;;;;;;6187416;23;20167;-81
2021/01/16 15:08:47;;;;;;;24.70;13.70;;;;;;;;;;6211553;23;20193;-82
2021/01/16 15:11:18;;;;;;;26.83;13.93;;;;;;;;;;6210085;23;20686;-81
2021/01/16 15:13:50;;;;;;;24.57;14.13;;;;;;;;;;6210822;23;20209;-81
2021/01/16 15:16:21;;;;;;;25.80;13.97;;;;;;;;;;6213000;23;20173;-81
2021/01/16 15:18:53;;;;;;;29.07;14.57;;;;;;;;;;6184294;23;20163;-81
2021/01/16 15:21:26;;;;;;;27.13;14.17;;;;;;;;;;6160096;23;20167;-81
2021/01/16 15:23:58;;;;;;;28.47;14.90;;;;;;;;;;6187470;23;20237;-81
2021/01/16 15:26:30;;;;;;;26.67;14.50;;;;;;;;;;6187824;23;20175;-81
2021/01/16 15:29:01;;;;;;;26.03;13.60;;;;;;;;;;6186399;23;20169;-81
2021/01/16 15:31:32;;;;;;;31.10;14.77;;;;;;;;;;6213667;23;20180;-81
2021/01/16 15:34:09;;;;;;;31.30;14.97;;;;;;;;;;6182819;23;20655;-81
2021/01/16 15:36:42;;;;;;;26.30;13.40;;;;;;;;;;6208146;23;20232;-81
2021/01/16 15:39:13;;;;;;;28.27;15.23;;;;;;;;;;6211778;23;20159;-81
2021/01/16 15:41:45;;;;;;;29.17;15.07;;;;;;;;;;6210109;23;20215;-81
2021/01/16 15:44:16;;;;;;;34.53;15.30;;;;;;;;;;6208915;23;20606;-81
2021/01/16 15:46:46;;;;;;;28.70;16.30;;;;;;;;;;6187030;23;20228;-81
2021/01/16 15:49:16;;;;;;;28.77;14.50;;;;;;;;;;6187321;23;20512;-81
2021/01/16 15:51:49;;;;;;;27.07;14.47;;;;;;;;;;6197463;23;20168;-81
2021/01/16 15:54:20;;;;;;;28.67;15.87;;;;;;;;;;6238251;23;20203;-81
2021/01/16 15:56:52;;;;;;;29.27;14.73;;;;;;;;;;6236986;23;20182;-81
2021/01/16 15:59:23;;;;;;;27.40;14.53;;;;;;;;;;6235506;23;20171;-81
2021/01/16 16:01:53;;;;;;;30.50;15.27;;;;;;;;;;6189164;23;20164;-81
2021/01/16 16:04:25;;;;;;;33.87;16.30;;;;;;;;;;6214361;23;20190;-81
2021/01/16 16:07:03;;;;;;;32.60;15.70;;;;;;;;;;6188630;23;20167;-81
2021/01/16 16:09:35;;;;;;;28.20;14.83;;;;;;;;;;6188504;23;20177;-81
2021/01/16 16:12:13;;;;;;;29.53;15.50;;;;;;;;;;6213942;23;20178;-81
2021/01/16 16:14:43;;;;;;;31.13;16.07;;;;;;;;;;6214050;23;20202;-80
2021/01/16 16:17:15;;;;;;;27.30;14.73;;;;;;;;;;6188240;23;20157;-81
2021/01/16 16:19:45;;;;;;;32.77;16.77;;;;;;;;;;6189284;23;20162;-80
2021/01/16 16:22:18;;;;;;;31.37;15.63;;;;;;;;;;6164652;23;20164;-81
2021/01/16 16:24:49;;;;;;;32.80;16.00;;;;;;;;;;6188454;23;20157;-81
2021/01/16 16:27:19;;;;;;;28.27;14.70;;;;;;;;;;6214727;23;20164;-81
2021/01/16 16:29:50;;;;;;;31.27;15.57;;;;;;;;;;6212257;23;20168;-81
2021/01/16 16:32:21;;;;;;;32.47;15.93;;;;;;;;;;6188180;23;20175;-81
2021/01/16 16:34:52;;;;;;;30.47;17.10;;;;;;;;;;6214715;23;20201;-81
2021/01/16 16:37:25;;;;;;;30.30;15.70;;;;;;;;;;6183783;23;20643;-81
2021/01/16 16:39:56;;;;;;;29.80;15.37;;;;;;;;;;6214207;23;20167;-81
2021/01/16 16:42:28;;;;;;;33.57;16.37;;;;;;;;;;6214181;23;20641;-81
2021/01/16 16:44:58;;;;;;;31.07;14.77;;;;;;;;;;6213196;23;20164;-81
2021/01/16 16:47:29;;;;;;;33.77;15.83;;;;;;;;;;6209712;23;20175;-81
2021/01/16 16:50:01;;;;;;;31.87;16.40;;;;;;;;;;6213698;23;20480;-81
2021/01/16 16:52:34;;;;;;;34.43;15.60;;;;;;;;;;6163531;23;20167;-81
2021/01/16 16:55:05;;;;;;;32.43;16.87;;;;;;;;;;6213534;23;20194;-81
2021/01/16 16:57:36;;;;;;;31.57;16.67;;;;;;;;;;6187942;23;20168;-81
2021/01/16 17:00:08;;;;;;;28.43;14.63;;;;;;;;;;6164621;23;20174;-81
2021/01/16 17:02:39;;;;;;;31.83;16.23;;;;;;;;;;6222836;23;20198;-82
2021/01/16 17:05:13;;;;;;;29.10;14.90;;;;;;;;;;6219864;23;20166;-81
2021/01/16 17:07:49;;;;;;;31.47;16.17;;;;;;;;;;6218483;23;20183;-82
2021/01/16 17:10:20;;;;;;;33.67;16.70;;;;;;;;;;6217213;23;20470;-82
2021/01/16 17:12:55;;;;;;;32.43;17.67;;;;;;;;;;6194851;23;20247;-81
2021/01/16 17:15:27;;;;;;;31.93;16.03;;;;;;;;;;6192812;23;20193;-81
2021/01/16 17:18:00;;;;;;;26.17;14.67;;;;;;;;;;6192981;23;20182;-81
2021/01/16 17:20:32;;;;;;;29.43;15.97;;;;;;;;;;6190450;23;20174;-81
2021/01/16 17:23:06;;;;;;;30.30;16.10;;;;;;;;;;6217399;23;20236;-81
2021/01/16 17:25:37;;;;;;;29.67;15.80;;;;;;;;;;6229088;23;20152;-81
2021/01/16 17:28:09;;;;;;;28.80;14.40;;;;;;;;;;6212550;23;20163;-80
2021/01/16 17:30:47;;;;;;;31.17;16.30;;;;;;;;;;6240017;23;20200;-82
2021/01/16 17:33:19;;;;;;;30.13;15.03;;;;;;;;;;6239672;23;20715;-81
2021/01/16 17:35:51;;;;;;;29.50;16.27;;;;;;;;;;6191040;23;20190;-83
2021/01/16 17:38:23;;;;;;;30.10;15.50;;;;;;;;;;6214796;23;20683;-81
2021/01/16 17:40:54;;;;;;;30.83;15.87;;;;;;;;;;6211837;23;20162;-81
2021/01/16 17:43:26;;;;;;;26.93;14.67;;;;;;;;;;6201477;23;20192;-81
2021/01/16 17:45:58;;;;;;;32.50;15.70;;;;;;;;;;6207750;23;20170;-81
2021/01/16 17:48:30;;;;;;;31.37;15.87;;;;;;;;;;6188868;23;20174;-81
2021/01/16 17:51:01;;;;;;;28.70;14.90;;;;;;;;;;6187489;23;20154;-81
2021/01/16 17:53:34;;;;;;;28.83;14.30;;;;;;;;;;6206628;23;20515;-81
2021/01/16 17:56:07;;;;;;;28.77;15.27;;;;;;;;;;6185820;23;20176;-81
2021/01/16 17:58:39;;;;;;;27.90;14.43;;;;;;;;;;6188391;23;20161;-81
2021/01/16 18:01:13;;;;;;;27.20;15.07;;;;;;;;;;6212455;23;20628;-81
2021/01/16 18:03:47;;;;;;;25.33;14.57;;;;;;;;;;6187849;23;20190;-81
2021/01/16 18:06:22;;;;;;;28.47;14.63;;;;;;;;;;6163287;23;20521;-81
2021/01/16 18:08:53;;;;;;;26.93;14.37;;;;;;;;;;6212860;23;20623;-81
2021/01/16 18:11:24;;;;;;;27.47;14.40;;;;;;;;;;6212209;23;20182;-80
2021/01/16 18:13:55;;;;;;;25.90;13.20;;;;;;;;;;6212841;23;20190;-81
2021/01/16 18:16:28;;;;;;;23.83;13.70;;;;;;;;;;6187146;23;20161;-80
2021/01/16 18:19:00;;;;;;;24.23;14.10;;;;;;;;;;6186653;23;20171;-81
2021/01/16 18:21:31;;;;;;;30.87;16.53;;;;;;;;;;6212105;23;20182;-81
2021/01/16 18:24:05;;;;;;;24.10;13.23;;;;;;;;;;6187030;23;20670;-81
2021/01/16 18:26:37;;;;;;;26.93;13.93;;;;;;;;;;6161999;23;20612;-81
2021/01/16 18:29:09;;;;;;;25.57;15.07;;;;;;;;;;6188538;23;20168;-81
2021/01/16 18:31:41;;;;;;;29.70;16.03;;;;;;;;;;6213136;23;20168;-81
2021/01/16 18:34:15;;;;;;;29.87;15.83;;;;;;;;;;6213719;23;20768;-80
2021/01/16 18:36:47;;;;;;;31.83;17.30;;;;;;;;;;6175758;23;20174;-80
2021/01/16 18:39:23;;;;;;;28.53;15.67;;;;;;;;;;6229136;23;20177;-80
2021/01/16 18:41:53;;;;;;;29.97;15.27;;;;;;;;;;6203480;23;20739;-80
2021/01/16 18:44:25;;;;;;;25.40;14.27;;;;;;;;;;6229519;23;20193;-81
2021/01/16 18:46:57;;;;;;;26.87;14.33;;;;;;;;;;6203334;23;20136;-81
2021/01/16 18:49:27;;;;;;;25.57;13.60;;;;;;;;;;6232862;23;20168;-81
2021/01/16 18:51:57;;;;;;;23.50;12.77;;;;;;;;;;6220662;23;20182;-81
2021/01/16 18:54:31;;;;;;;28.37;14.07;;;;;;;;;;6181765;23;20199;-79
2021/01/16 18:57:01;;;;;;;23.53;12.33;;;;;;;;;;6207676;23;20165;-82
2021/01/16 18:59:34;;;;;;;23.97;12.83;;;;;;;;;;6184608;23;20157;-82
2021/01/16 19:02:05;;;;;;;25.83;13.00;;;;;;;;;;6205424;23;20180;-82
2021/01/16 19:04:36;;;;;;;23.23;13.37;;;;;;;;;;6223995;23;20198;-82
2021/01/16 19:07:09;;;;;;;23.83;13.30;;;;;;;;;;6206315;23;20150;-82
2021/01/16 19:09:41;;;;;;;20.47;11.73;;;;;;;;;;6211910;23;20170;-82
2021/01/16 19:12:18;;;;;;;24.43;13.60;;;;;;;;;;6233158;23;20153;-82
2021/01/16 19:14:54;;;;;;;22.97;13.03;;;;;;;;;;6186479;23;20183;-81
2021/01/16 19:17:26;;;;;;;24.87;12.90;;;;;;;;;;6184741;23;20175;-82
2021/01/16 19:23:21;;;;;;;23.93;13.77;;;;;;;;;;6186343;23;20188;-81
2021/01/16 19:25:57;;;;;;;27.23;14.77;;;;;;;;;;6183979;23;20213;-82
2021/01/16 19:28:41;;;;;;;28.23;13.97;;;;;;;;;;6138893;23;20178;-79
2021/01/16 19:31:43;;;;;;;26.23;13.57;;;;;;;;;;6189313;23;20627;-82
2021/01/16 19:34:20;;;;;;;22.00;12.70;;;;;;;;;;6240176;23;20226;-82
2021/01/16 19:36:54;;;;;;;26.70;13.40;;;;;;;;;;6238950;23;20222;-82
2021/01/16 19:40:03;;;;;;;23.57;13.47;;;;;;;;;;6240181;23;20140;-82
2021/01/16 19:42:44;;;;;;;20.83;12.07;;;;;;;;;;6215543;23;20255;-82
2021/01/16 19:49:28;;;;;;;24.63;13.27;;;;;;;;;;6198429;23;20174;-82
2021/01/16 19:51:59;;;;;;;26.40;13.37;;;;;;;;;;6212751;23;20172;-82
2021/01/16 19:54:30;;;;;;;26.40;14.60;;;;;;;;;;6212372;23;20201;-81
2021/01/16 19:57:02;;;;;;;29.03;14.33;;;;;;;;;;6186376;23;20610;-82
2021/01/16 19:59:34;;;;;;;26.50;13.80;;;;;;;;;;6186663;23;20176;-82
2021/01/16 20:02:05;;;;;;;30.43;15.57;;;;;;;;;;6181880;23;20194;-82
2021/01/16 20:04:37;;;;;;;24.30;12.67;;;;;;;;;;6187332;23;20194;-82
2021/01/16 20:07:07;;;;;;;23.87;12.73;;;;;;;;;;6209931;23;20168;-80
2021/01/16 20:09:39;;;;;;;23.40;12.97;;;;;;;;;;6187529;23;20168;-82
2021/01/16 20:12:11;;;;;;;25.23;14.20;;;;;;;;;;6179536;23;20183;-79
2021/01/16 20:14:43;;;;;;;24.73;13.57;;;;;;;;;;6181797;23;20210;-79
2021/01/16 20:17:14;;;;;;;22.97;13.10;;;;;;;;;;6179593;23;20713;-81
2021/01/16 20:19:44;;;;;;;25.97;13.93;;;;;;;;;;6189181;23;20163;-79
2021/01/16 20:22:16;;;;;;;25.90;13.40;;;;;;;;;;6213164;23;20455;-79
2021/01/16 20:24:47;;;;;;;24.67;13.17;;;;;;;;;;6190210;23;20168;-80
2021/01/16 20:27:17;;;;;;;27.83;13.23;;;;;;;;;;6219717;23;20176;-80
2021/01/16 20:29:53;;;;;;;23.40;12.83;;;;;;;;;;6187425;23;20160;-80
2021/01/16 20:32:26;;;;;;;21.07;12.93;;;;;;;;;;6189139;23;20163;-80
2021/01/16 20:34:57;;;;;;;27.43;14.77;;;;;;;;;;6183662;23;20175;-79
2021/01/16 20:37:29;;;;;;;25.10;13.67;;;;;;;;;;6206119;23;20167;-80
2021/01/16 20:40:00;;;;;;;26.30;14.00;;;;;;;;;;6205515;23;20185;-79
2021/01/16 20:42:32;;;;;;;24.73;13.27;;;;;;;;;;6207815;23;20183;-80
2021/01/16 20:45:05;;;;;;;28.03;15.23;;;;;;;;;;6205525;23;20177;-80
2021/01/16 20:47:36;;;;;;;25.97;14.57;;;;;;;;;;6232184;23;20168;-80
2021/01/16 20:50:08;;;;;;;28.50;15.90;;;;;;;;;;6208485;23;20143;-81
2021/01/16 20:52:40;;;;;;;26.07;15.03;;;;;;;;;;6208131;23;20199;-79
2021/01/16 20:55:13;;;;;;;30.43;15.87;;;;;;;;;;6207183;23;20195;-80
2021/01/16 20:57:46;;;;;;;28.80;15.07;;;;;;;;;;6205239;23;20175;-79
2021/01/16 21:00:23;;;;;;;27.73;15.63;;;;;;;;;;6158284;23;20167;-80
2021/01/16 21:02:55;;;;;;;31.10;16.43;;;;;;;;;;6179951;23;20198;-80
2021/01/16 21:05:26;;;;;;;32.33;15.27;;;;;;;;;;6185732;23;20520;-79
2021/01/16 21:07:58;;;;;;;27.80;14.60;;;;;;;;;;6182696;23;20179;-79
2021/01/16 21:10:29;;;;;;;25.60;14.00;;;;;;;;;;6179836;23;20171;-80
2021/01/16 21:13:01;;;;;;;28.07;15.30;;;;;;;;;;6196194;23;20195;-80
2021/01/16 21:15:33;;;;;;;29.77;15.80;;;;;;;;;;6187564;23;20198;-80
2021/01/16 21:18:06;;;;;;;28.33;15.23;;;;;;;;;;6183232;23;20171;-80
2021/01/16 21:20:40;;;;;;;25.63;13.67;;;;;;;;;;6202695;23;20183;-80
2021/01/16 21:23:13;;;;;;;28.93;14.93;;;;;;;;;;6208030;23;20197;-80
2021/01/16 21:25:45;;;;;;;24.13;13.17;;;;;;;;;;6183750;23;20185;-80
2021/01/16 21:28:17;;;;;;;27.70;14.07;;;;;;;;;;6204699;23;20178;-80
2021/01/16 21:30:50;;;;;;;24.10;13.47;;;;;;;;;;6178229;23;20167;-81
2021/01/16 21:33:22;;;;;;;24.07;13.17;;;;;;;;;;6202348;23;20224;-80
2021/01/16 21:36:14;;;;;;;25.03;13.57;;;;;;;;;;6202990;23;20194;-81
2021/01/16 21:39:06;;;;;;;27.87;14.83;;;;;;;;;;6131980;23;20186;-80
2021/01/16 21:41:47;;;;;;;23.63;14.13;;;;;;;;;;6204058;23;20508;-80
2021/01/16 21:44:26;;;;;;;25.13;13.70;;;;;;;;;;6202251;23;20663;-81
2021/01/16 21:47:24;;;;;;;27.97;15.07;;;;;;;;;;6202017;23;20173;-80
2021/01/16 21:50:03;;;;;;;22.50;13.07;;;;;;;;;;6144615;23;20176;-80
2021/01/16 21:52:33;;;;;;;26.10;14.80;;;;;;;;;;6148621;23;20167;-80
2021/01/16 21:58:36;;;;;;;26.57;14.93;;;;;;;;;;6121135;23;20508;-80
2021/01/16 22:01:43;;;;;;;27.53;14.33;;;;;;;;;;6180883;23;20183;-80